sensor_id;sensor_type;location;lat;lon;timestamp;P1;durP1;ratioP1;P2;durP2;ratioP2
6580;SDS011;3324;50.796;7.228;2022-08-14T00:00:00;11.70;;;11.00;;
6580;SDS011;3324;50.796;7.228;2022-08-14T00:02:26;12.50;;;11.70;;
6580;SDS011;3324;50.796;7.228;2022-08-14T00:04:51;11.77;;;11.17;;
6580;SDS011;3324;50.796;7.228;2022-08-14T00:07:17;11.68;;;11.07;;
6580;SDS011;3324;50.796;7.228;2022-08-14T00:09:43;12.43;;;11.63;;
6580;SDS011;3324;50.796;7.228;2022-08-14T00:12:09;11.83;;;11.03;;
6580;SDS011;3324;50.796;7.228;2022-08-14T00:14:36;11.30;;;10.80;;
6580;SDS011;3324;50.796;7.228;2022-08-14T00:17:02;11.25;;;10.75;;
6580;SDS011;3324;50.796;7.228;2022-08-14T00:19:28;11.90;;;11.30;;
6580;SDS011;3324;50.796;7.228;2022-08-14T00:21:53;11.50;;;10.90;;
6580;SDS011;3324;50.796;7.228;2022-08-14T00:24:20;12.30;;;11.50;;
6580;SDS011;3324;50.796;7.228;2022-08-14T00:26:46;13.20;;;12.00;;
6580;SDS011;3324;50.796;7.228;2022-08-14T00:29:12;11.80;;;11.20;;
6580;SDS011;3324;50.796;7.228;2022-08-14T00:31:37;11.60;;;11.00;;
6580;SDS011;3324;50.796;7.228;2022-08-14T00:34:03;10.75;;;10.25;;
6580;SDS011;3324;50.796;7.228;2022-08-14T00:36:29;12.50;;;11.70;;
6580;SDS011;3324;50.796;7.228;2022-08-14T00:38:55;11.60;;;11.00;;
6580;SDS011;3324;50.796;7.228;2022-08-14T00:41:20;12.10;;;11.50;;
6580;SDS011;3324;50.796;7.228;2022-08-14T00:43:46;12.25;;;11.45;;
6580;SDS011;3324;50.796;7.228;2022-08-14T00:46:12;11.70;;;11.10;;
6580;SDS011;3324;50.796;7.228;2022-08-14T00:48:38;11.00;;;10.50;;
6580;SDS011;3324;50.796;7.228;2022-08-14T00:51:05;11.80;;;11.20;;
6580;SDS011;3324;50.796;7.228;2022-08-14T00:53:33;11.70;;;11.10;;
6580;SDS011;3324;50.796;7.228;2022-08-14T00:56:00;12.30;;;11.70;;
6580;SDS011;3324;50.796;7.228;2022-08-14T00:58:27;12.40;;;11.70;;
6580;SDS011;3324;50.796;7.228;2022-08-14T01:00:59;11.60;;;11.00;;
6580;SDS011;3324;50.796;7.228;2022-08-14T01:03:30;11.20;;;10.70;;
6580;SDS011;3324;50.796;7.228;2022-08-14T01:06:00;12.50;;;11.70;;
6580;SDS011;3324;50.796;7.228;2022-08-14T01:08:26;11.40;;;10.90;;
6580;SDS011;3324;50.796;7.228;2022-08-14T01:10:54;12.30;;;11.50;;
6580;SDS011;3324;50.796;7.228;2022-08-14T01:13:22;11.50;;;10.90;;
6580;SDS011;3324;50.796;7.228;2022-08-14T01:15:54;12.10;;;11.30;;
6580;SDS011;3324;50.796;7.228;2022-08-14T01:18:21;11.30;;;10.80;;
6580;SDS011;3324;50.796;7.228;2022-08-14T01:21:08;11.10;;;10.60;;
6580;SDS011;3324;50.796;7.228;2022-08-14T01:23:40;11.70;;;11.00;;
6580;SDS011;3324;50.796;7.228;2022-08-14T01:26:11;11.30;;;10.80;;
6580;SDS011;3324;50.796;7.228;2022-08-14T01:28:39;11.50;;;11.00;;
6580;SDS011;3324;50.796;7.228;2022-08-14T01:31:16;11.20;;;10.70;;
6580;SDS011;3324;50.796;7.228;2022-08-14T01:33:44;11.30;;;10.60;;
6580;SDS011;3324;50.796;7.228;2022-08-14T01:36:14;10.90;;;10.40;;
6580;SDS011;3324;50.796;7.228;2022-08-14T01:38:42;10.90;;;10.40;;
6580;SDS011;3324;50.796;7.228;2022-08-14T01:41:12;12.40;;;11.60;;
6580;SDS011;3324;50.796;7.228;2022-08-14T01:43:43;11.70;;;11.10;;
6580;SDS011;3324;50.796;7.228;2022-08-14T01:46:10;11.80;;;11.20;;
6580;SDS011;3324;50.796;7.228;2022-08-14T01:48:36;11.90;;;11.30;;
6580;SDS011;3324;50.796;7.228;2022-08-14T01:51:03;10.95;;;10.45;;
6580;SDS011;3324;50.796;7.228;2022-08-14T01:53:30;11.70;;;11.00;;
6580;SDS011;3324;50.796;7.228;2022-08-14T01:56:01;11.23;;;10.73;;
6580;SDS011;3324;50.796;7.228;2022-08-14T01:58:29;11.00;;;10.50;;
6580;SDS011;3324;50.796;7.228;2022-08-14T02:00:55;11.30;;;10.80;;
6580;SDS011;3324;50.796;7.228;2022-08-14T02:03:22;11.70;;;11.10;;
6580;SDS011;3324;50.796;7.228;2022-08-14T02:05:49;11.90;;;11.30;;
6580;SDS011;3324;50.796;7.228;2022-08-14T02:08:14;11.90;;;11.30;;
6580;SDS011;3324;50.796;7.228;2022-08-14T02:10:41;12.10;;;11.50;;
6580;SDS011;3324;50.796;7.228;2022-08-14T02:13:08;12.27;;;11.60;;
6580;SDS011;3324;50.796;7.228;2022-08-14T02:15:35;11.80;;;11.20;;
6580;SDS011;3324;50.796;7.228;2022-08-14T02:18:04;11.30;;;10.80;;
6580;SDS011;3324;50.796;7.228;2022-08-14T02:20:31;12.10;;;11.50;;
6580;SDS011;3324;50.796;7.228;2022-08-14T02:23:00;12.00;;;11.40;;
6580;SDS011;3324;50.796;7.228;2022-08-14T02:25:26;11.10;;;10.60;;
6580;SDS011;3324;50.796;7.228;2022-08-14T02:27:54;12.50;;;11.70;;
6580;SDS011;3324;50.796;7.228;2022-08-14T02:30:22;10.80;;;10.30;;
6580;SDS011;3324;50.796;7.228;2022-08-14T02:32:49;11.20;;;10.70;;
6580;SDS011;3324;50.796;7.228;2022-08-14T02:35:15;10.90;;;10.40;;
6580;SDS011;3324;50.796;7.228;2022-08-14T02:37:42;11.00;;;10.50;;
6580;SDS011;3324;50.796;7.228;2022-08-14T02:40:11;11.10;;;10.60;;
6580;SDS011;3324;50.796;7.228;2022-08-14T02:42:38;11.70;;;11.10;;
6580;SDS011;3324;50.796;7.228;2022-08-14T02:45:04;11.85;;;11.15;;
6580;SDS011;3324;50.796;7.228;2022-08-14T02:47:31;11.80;;;11.10;;
6580;SDS011;3324;50.796;7.228;2022-08-14T02:49:58;10.60;;;10.20;;
6580;SDS011;3324;50.796;7.228;2022-08-14T02:52:23;11.10;;;10.50;;
6580;SDS011;3324;50.796;7.228;2022-08-14T02:54:51;10.60;;;10.20;;
6580;SDS011;3324;50.796;7.228;2022-08-14T02:57:17;10.40;;;9.90;;
6580;SDS011;3324;50.796;7.228;2022-08-14T02:59:43;10.30;;;9.80;;
6580;SDS011;3324;50.796;7.228;2022-08-14T03:02:10;10.80;;;10.20;;
6580;SDS011;3324;50.796;7.228;2022-08-14T03:04:37;10.30;;;9.80;;
6580;SDS011;3324;50.796;7.228;2022-08-14T03:07:02;11.05;;;10.45;;
6580;SDS011;3324;50.796;7.228;2022-08-14T03:09:28;10.40;;;10.00;;
6580;SDS011;3324;50.796;7.228;2022-08-14T03:11:54;10.30;;;9.90;;
6580;SDS011;3324;50.796;7.228;2022-08-14T03:14:19;11.00;;;10.40;;
6580;SDS011;3324;50.796;7.228;2022-08-14T03:16:48;10.10;;;9.80;;
6580;SDS011;3324;50.796;7.228;2022-08-14T03:19:14;10.70;;;10.30;;
6580;SDS011;3324;50.796;7.228;2022-08-14T03:21:39;11.20;;;10.70;;
6580;SDS011;3324;50.796;7.228;2022-08-14T03:24:05;12.40;;;11.60;;
6580;SDS011;3324;50.796;7.228;2022-08-14T03:26:36;11.95;;;11.23;;
6580;SDS011;3324;50.796;7.228;2022-08-14T03:29:06;11.20;;;10.70;;
6580;SDS011;3324;50.796;7.228;2022-08-14T03:31:32;10.88;;;10.38;;
6580;SDS011;3324;50.796;7.228;2022-08-14T03:33:58;11.00;;;10.50;;
6580;SDS011;3324;50.796;7.228;2022-08-14T03:36:24;12.10;;;11.30;;
6580;SDS011;3324;50.796;7.228;2022-08-14T03:38:50;10.40;;;10.00;;
6580;SDS011;3324;50.796;7.228;2022-08-14T03:41:23;11.30;;;10.80;;
6580;SDS011;3324;50.796;7.228;2022-08-14T03:43:54;11.18;;;10.48;;
6580;SDS011;3324;50.796;7.228;2022-08-14T03:46:22;10.45;;;10.05;;
6580;SDS011;3324;50.796;7.228;2022-08-14T03:48:50;11.20;;;10.70;;
6580;SDS011;3324;50.796;7.228;2022-08-14T03:51:19;12.20;;;11.40;;
6580;SDS011;3324;50.796;7.228;2022-08-14T03:53:46;11.95;;;11.35;;
6580;SDS011;3324;50.796;7.228;2022-08-14T03:56:13;12.00;;;11.20;;
6580;SDS011;3324;50.796;7.228;2022-08-14T04:01:09;11.10;;;10.60;;
6580;SDS011;3324;50.796;7.228;2022-08-14T04:03:35;10.63;;;10.13;;
6580;SDS011;3324;50.796;7.228;2022-08-14T04:06:01;11.17;;;10.67;;
6580;SDS011;3324;50.796;7.228;2022-08-14T04:08:27;12.10;;;11.30;;
6580;SDS011;3324;50.796;7.228;2022-08-14T04:10:53;11.00;;;10.50;;
6580;SDS011;3324;50.796;7.228;2022-08-14T04:13:19;11.20;;;10.70;;
6580;SDS011;3324;50.796;7.228;2022-08-14T04:15:44;12.50;;;11.80;;
6580;SDS011;3324;50.796;7.228;2022-08-14T04:18:11;12.70;;;11.80;;
6580;SDS011;3324;50.796;7.228;2022-08-14T04:20:38;12.50;;;11.70;;
6580;SDS011;3324;50.796;7.228;2022-08-14T04:23:06;12.55;;;11.85;;
6580;SDS011;3324;50.796;7.228;2022-08-14T04:25:33;12.37;;;11.67;;
6580;SDS011;3324;50.796;7.228;2022-08-14T04:28:00;12.60;;;11.80;;
6580;SDS011;3324;50.796;7.228;2022-08-14T04:30:33;12.95;;;12.05;;
6580;SDS011;3324;50.796;7.228;2022-08-14T04:33:06;11.15;;;10.65;;
6580;SDS011;3324;50.796;7.228;2022-08-14T04:35:33;11.80;;;11.20;;
6580;SDS011;3324;50.796;7.228;2022-08-14T04:37:59;11.30;;;10.80;;
6580;SDS011;3324;50.796;7.228;2022-08-14T04:41:05;11.57;;;10.98;;
6580;SDS011;3324;50.796;7.228;2022-08-14T04:43:49;11.50;;;10.90;;
6580;SDS011;3324;50.796;7.228;2022-08-14T04:46:16;11.60;;;11.00;;
6580;SDS011;3324;50.796;7.228;2022-08-14T04:48:43;11.00;;;10.50;;
6580;SDS011;3324;50.796;7.228;2022-08-14T04:51:12;11.00;;;10.50;;
6580;SDS011;3324;50.796;7.228;2022-08-14T04:53:41;11.60;;;11.00;;
6580;SDS011;3324;50.796;7.228;2022-08-14T04:56:11;10.95;;;10.45;;
6580;SDS011;3324;50.796;7.228;2022-08-14T04:58:39;11.05;;;10.55;;
6580;SDS011;3324;50.796;7.228;2022-08-14T05:01:06;11.03;;;10.53;;
6580;SDS011;3324;50.796;7.228;2022-08-14T05:03:34;11.50;;;10.90;;
6580;SDS011;3324;50.796;7.228;2022-08-14T05:06:01;11.00;;;10.50;;
6580;SDS011;3324;50.796;7.228;2022-08-14T05:08:29;11.37;;;10.87;;
6580;SDS011;3324;50.796;7.228;2022-08-14T05:10:57;11.00;;;10.50;;
6580;SDS011;3324;50.796;7.228;2022-08-14T05:13:25;10.90;;;10.40;;
6580;SDS011;3324;50.796;7.228;2022-08-14T05:15:53;10.50;;;10.10;;
6580;SDS011;3324;50.796;7.228;2022-08-14T05:18:23;11.10;;;10.60;;
6580;SDS011;3324;50.796;7.228;2022-08-14T05:20:53;11.80;;;11.10;;
6580;SDS011;3324;50.796;7.228;2022-08-14T05:23:23;11.60;;;10.90;;
6580;SDS011;3324;50.796;7.228;2022-08-14T05:25:52;10.30;;;9.90;;
6580;SDS011;3324;50.796;7.228;2022-08-14T05:28:20;10.47;;;10.00;;
6580;SDS011;3324;50.796;7.228;2022-08-14T05:30:49;11.80;;;11.10;;
6580;SDS011;3324;50.796;7.228;2022-08-14T05:33:17;11.20;;;10.70;;
6580;SDS011;3324;50.796;7.228;2022-08-14T05:35:45;11.30;;;10.80;;
6580;SDS011;3324;50.796;7.228;2022-08-14T05:38:13;11.00;;;10.50;;
6580;SDS011;3324;50.796;7.228;2022-08-14T05:40:44;11.70;;;11.10;;
6580;SDS011;3324;50.796;7.228;2022-08-14T05:43:12;11.60;;;11.00;;
6580;SDS011;3324;50.796;7.228;2022-08-14T05:45:39;11.10;;;10.60;;
6580;SDS011;3324;50.796;7.228;2022-08-14T05:48:06;10.98;;;10.48;;
6580;SDS011;3324;50.796;7.228;2022-08-14T05:50:37;11.43;;;10.82;;
6580;SDS011;3324;50.796;7.228;2022-08-14T05:55:28;13.05;;;12.15;;
6580;SDS011;3324;50.796;7.228;2022-08-14T05:57:55;11.95;;;11.35;;
6580;SDS011;3324;50.796;7.228;2022-08-14T06:00:25;11.80;;;11.20;;
6580;SDS011;3324;50.796;7.228;2022-08-14T06:03:03;11.50;;;10.90;;
6580;SDS011;3324;50.796;7.228;2022-08-14T06:05:30;11.90;;;11.30;;
6580;SDS011;3324;50.796;7.228;2022-08-14T06:07:57;13.00;;;12.10;;
6580;SDS011;3324;50.796;7.228;2022-08-14T06:10:23;12.70;;;11.80;;
6580;SDS011;3324;50.796;7.228;2022-08-14T06:12:50;11.80;;;11.10;;
6580;SDS011;3324;50.796;7.228;2022-08-14T06:15:16;12.45;;;11.65;;
6580;SDS011;3324;50.796;7.228;2022-08-14T06:17:42;11.90;;;11.30;;
6580;SDS011;3324;50.796;7.228;2022-08-14T06:20:12;13.35;;;12.05;;
6580;SDS011;3324;50.796;7.228;2022-08-14T06:22:39;11.73;;;11.03;;
6580;SDS011;3324;50.796;7.228;2022-08-14T06:25:06;11.95;;;11.35;;
6580;SDS011;3324;50.796;7.228;2022-08-14T06:27:40;11.20;;;10.70;;
6580;SDS011;3324;50.796;7.228;2022-08-14T06:30:09;11.20;;;10.70;;
6580;SDS011;3324;50.796;7.228;2022-08-14T06:32:37;12.43;;;11.63;;
6580;SDS011;3324;50.796;7.228;2022-08-14T06:35:03;11.70;;;11.10;;
6580;SDS011;3324;50.796;7.228;2022-08-14T06:37:46;13.10;;;12.20;;
6580;SDS011;3324;50.796;7.228;2022-08-14T06:40:14;12.70;;;12.00;;
6580;SDS011;3324;50.796;7.228;2022-08-14T06:42:42;12.50;;;11.80;;
6580;SDS011;3324;50.796;7.228;2022-08-14T06:45:08;13.10;;;12.20;;
6580;SDS011;3324;50.796;7.228;2022-08-14T06:47:35;13.30;;;12.40;;
6580;SDS011;3324;50.796;7.228;2022-08-14T06:50:03;12.50;;;11.80;;
6580;SDS011;3324;50.796;7.228;2022-08-14T06:52:30;12.50;;;11.80;;
6580;SDS011;3324;50.796;7.228;2022-08-14T06:54:55;12.80;;;12.10;;
6580;SDS011;3324;50.796;7.228;2022-08-14T06:57:22;13.80;;;12.80;;
6580;SDS011;3324;50.796;7.228;2022-08-14T06:59:48;13.85;;;12.85;;
6580;SDS011;3324;50.796;7.228;2022-08-14T07:02:14;13.80;;;12.80;;
6580;SDS011;3324;50.796;7.228;2022-08-14T07:04:58;12.70;;;12.00;;
6580;SDS011;3324;50.796;7.228;2022-08-14T07:07:43;12.40;;;11.70;;
6580;SDS011;3324;50.796;7.228;2022-08-14T07:10:09;13.60;;;12.80;;
6580;SDS011;3324;50.796;7.228;2022-08-14T07:12:35;13.40;;;12.60;;
6580;SDS011;3324;50.796;7.228;2022-08-14T07:15:01;14.40;;;13.30;;
6580;SDS011;3324;50.796;7.228;2022-08-14T07:17:27;14.70;;;13.60;;
6580;SDS011;3324;50.796;7.228;2022-08-14T07:19:53;14.00;;;13.10;;
6580;SDS011;3324;50.796;7.228;2022-08-14T07:22:19;14.98;;;13.98;;
6580;SDS011;3324;50.796;7.228;2022-08-14T07:24:45;13.45;;;12.65;;
6580;SDS011;3324;50.796;7.228;2022-08-14T07:27:10;13.40;;;12.40;;
6580;SDS011;3324;50.796;7.228;2022-08-14T07:29:36;13.50;;;12.70;;
6580;SDS011;3324;50.796;7.228;2022-08-14T07:32:02;14.20;;;13.30;;
6580;SDS011;3324;50.796;7.228;2022-08-14T07:34:27;15.60;;;14.20;;
6580;SDS011;3324;50.796;7.228;2022-08-14T07:36:53;13.80;;;13.00;;
6580;SDS011;3324;50.796;7.228;2022-08-14T07:39:19;15.10;;;14.10;;
6580;SDS011;3324;50.796;7.228;2022-08-14T07:41:45;13.60;;;12.80;;
6580;SDS011;3324;50.796;7.228;2022-08-14T07:44:11;14.10;;;13.20;;
6580;SDS011;3324;50.796;7.228;2022-08-14T07:46:37;14.60;;;13.70;;
6580;SDS011;3324;50.796;7.228;2022-08-14T07:49:06;15.00;;;14.00;;
6580;SDS011;3324;50.796;7.228;2022-08-14T07:51:33;14.73;;;13.73;;
6580;SDS011;3324;50.796;7.228;2022-08-14T07:53:58;15.30;;;14.10;;
6580;SDS011;3324;50.796;7.228;2022-08-14T07:56:24;15.60;;;14.50;;
6580;SDS011;3324;50.796;7.228;2022-08-14T07:58:50;15.30;;;14.30;;
6580;SDS011;3324;50.796;7.228;2022-08-14T08:01:16;15.50;;;14.40;;
6580;SDS011;3324;50.796;7.228;2022-08-14T08:03:45;15.90;;;14.60;;
6580;SDS011;3324;50.796;7.228;2022-08-14T08:06:13;15.80;;;14.70;;
6580;SDS011;3324;50.796;7.228;2022-08-14T08:08:41;15.55;;;14.45;;
6580;SDS011;3324;50.796;7.228;2022-08-14T08:11:08;16.15;;;14.95;;
6580;SDS011;3324;50.796;7.228;2022-08-14T08:13:36;15.90;;;14.80;;
6580;SDS011;3324;50.796;7.228;2022-08-14T08:16:05;16.43;;;15.23;;
6580;SDS011;3324;50.796;7.228;2022-08-14T08:18:32;17.63;;;15.83;;
6580;SDS011;3324;50.796;7.228;2022-08-14T08:20:58;17.70;;;16.20;;
6580;SDS011;3324;50.796;7.228;2022-08-14T08:23:24;16.30;;;15.10;;
6580;SDS011;3324;50.796;7.228;2022-08-14T08:25:53;20.00;;;18.05;;
6580;SDS011;3324;50.796;7.228;2022-08-14T08:28:22;22.10;;;19.70;;
6580;SDS011;3324;50.796;7.228;2022-08-14T08:33:19;23.33;;;19.43;;
6580;SDS011;3324;50.796;7.228;2022-08-14T08:35:45;21.00;;;18.80;;
6580;SDS011;3324;50.796;7.228;2022-08-14T08:38:15;25.50;;;19.90;;
6580;SDS011;3324;50.796;7.228;2022-08-14T08:40:43;21.50;;;19.20;;
6580;SDS011;3324;50.796;7.228;2022-08-14T08:43:19;21.75;;;19.45;;
6580;SDS011;3324;50.796;7.228;2022-08-14T08:45:53;22.33;;;19.93;;
6580;SDS011;3324;50.796;7.228;2022-08-14T08:48:19;22.00;;;19.45;;
6580;SDS011;3324;50.796;7.228;2022-08-14T08:50:45;23.03;;;19.70;;
6580;SDS011;3324;50.796;7.228;2022-08-14T08:53:11;23.10;;;19.90;;
6580;SDS011;3324;50.796;7.228;2022-08-14T08:55:38;28.60;;;21.00;;
6580;SDS011;3324;50.796;7.228;2022-08-14T09:00:35;26.38;;;20.83;;
6580;SDS011;3324;50.796;7.228;2022-08-14T09:03:03;24.10;;;20.50;;
6580;SDS011;3324;50.796;7.228;2022-08-14T09:05:34;33.30;;;22.90;;
6580;SDS011;3324;50.796;7.228;2022-08-14T09:08:14;30.20;;;24.10;;
6580;SDS011;3324;50.796;7.228;2022-08-14T09:10:44;23.35;;;19.65;;
6580;SDS011;3324;50.796;7.228;2022-08-14T09:13:11;24.50;;;20.40;;
6580;SDS011;3324;50.796;7.228;2022-08-14T09:15:39;30.88;;;22.13;;
6580;SDS011;3324;50.796;7.228;2022-08-14T09:18:07;25.20;;;20.50;;
6580;SDS011;3324;50.796;7.228;2022-08-14T09:20:34;27.10;;;22.00;;
6580;SDS011;3324;50.796;7.228;2022-08-14T09:23:02;30.27;;;21.70;;
6580;SDS011;3324;50.796;7.228;2022-08-14T09:25:29;34.60;;;23.10;;
6580;SDS011;3324;50.796;7.228;2022-08-14T09:27:55;28.00;;;21.20;;
6580;SDS011;3324;50.796;7.228;2022-08-14T09:30:21;27.30;;;21.20;;
6580;SDS011;3324;50.796;7.228;2022-08-14T09:38:31;29.37;;;22.30;;
6580;SDS011;3324;50.796;7.228;2022-08-14T09:41:09;30.30;;;22.00;;
6580;SDS011;3324;50.796;7.228;2022-08-14T09:43:53;29.57;;;22.00;;
6580;SDS011;3324;50.796;7.228;2022-08-14T09:46:31;22.10;;;19.60;;
6580;SDS011;3324;50.796;7.228;2022-08-14T09:49:03;23.90;;;20.17;;
6580;SDS011;3324;50.796;7.228;2022-08-14T09:51:30;21.20;;;19.10;;
6580;SDS011;3324;50.796;7.228;2022-08-14T09:54:06;21.50;;;19.30;;
6580;SDS011;3324;50.796;7.228;2022-08-14T09:56:43;22.90;;;19.70;;
6580;SDS011;3324;50.796;7.228;2022-08-14T09:59:10;24.60;;;20.40;;
6580;SDS011;3324;50.796;7.228;2022-08-14T10:01:38;21.10;;;19.00;;
6580;SDS011;3324;50.796;7.228;2022-08-14T10:04:15;21.75;;;19.45;;
6580;SDS011;3324;50.796;7.228;2022-08-14T10:06:52;25.87;;;20.80;;
6580;SDS011;3324;50.796;7.228;2022-08-14T10:09:18;21.90;;;19.60;;
6580;SDS011;3324;50.796;7.228;2022-08-14T10:11:57;24.10;;;20.00;;
6580;SDS011;3324;50.796;7.228;2022-08-14T10:14:24;26.10;;;20.80;;
6580;SDS011;3324;50.796;7.228;2022-08-14T10:16:55;22.85;;;19.95;;
6580;SDS011;3324;50.796;7.228;2022-08-14T10:19:22;24.80;;;20.70;;
6580;SDS011;3324;50.796;7.228;2022-08-14T10:22:23;26.05;;;20.90;;
6580;SDS011;3324;50.796;7.228;2022-08-14T10:24:52;28.60;;;22.40;;
6580;SDS011;3324;50.796;7.228;2022-08-14T10:27:24;26.50;;;21.10;;
6580;SDS011;3324;50.796;7.228;2022-08-14T10:29:59;28.80;;;21.50;;
6580;SDS011;3324;50.796;7.228;2022-08-14T10:32:25;25.00;;;20.60;;
6580;SDS011;3324;50.796;7.228;2022-08-14T10:34:51;24.15;;;20.42;;
6580;SDS011;3324;50.796;7.228;2022-08-14T10:37:35;28.00;;;21.27;;
6580;SDS011;3324;50.796;7.228;2022-08-14T10:40:06;23.63;;;20.30;;
6580;SDS011;3324;50.796;7.228;2022-08-14T10:42:39;25.30;;;20.80;;
6580;SDS011;3324;50.796;7.228;2022-08-14T10:45:18;28.60;;;21.75;;
6580;SDS011;3324;50.796;7.228;2022-08-14T10:47:46;27.15;;;21.50;;
6580;SDS011;3324;50.796;7.228;2022-08-14T10:50:13;30.90;;;21.90;;
6580;SDS011;3324;50.796;7.228;2022-08-14T10:52:40;23.80;;;20.30;;
6580;SDS011;3324;50.796;7.228;2022-08-14T10:55:08;24.87;;;20.73;;
6580;SDS011;3324;50.796;7.228;2022-08-14T11:00:39;26.10;;;21.05;;
6580;SDS011;3324;50.796;7.228;2022-08-14T11:03:09;27.57;;;21.70;;
6580;SDS011;3324;50.796;7.228;2022-08-14T11:05:41;23.10;;;20.20;;
6580;SDS011;3324;50.796;7.228;2022-08-14T11:08:12;25.45;;;20.90;;
6580;SDS011;3324;50.796;7.228;2022-08-14T11:10:46;28.20;;;21.70;;
6580;SDS011;3324;50.796;7.228;2022-08-14T11:13:18;28.60;;;21.90;;
6580;SDS011;3324;50.796;7.228;2022-08-14T11:15:45;28.50;;;21.80;;
6580;SDS011;3324;50.796;7.228;2022-08-14T11:18:14;25.70;;;20.90;;
6580;SDS011;3324;50.796;7.228;2022-08-14T11:20:47;25.25;;;20.90;;
6580;SDS011;3324;50.796;7.228;2022-08-14T11:23:14;24.00;;;20.50;;
6580;SDS011;3324;50.796;7.228;2022-08-14T11:25:43;23.30;;;20.20;;
6580;SDS011;3324;50.796;7.228;2022-08-14T11:28:12;28.25;;;21.30;;
6580;SDS011;3324;50.796;7.228;2022-08-14T11:30:41;27.60;;;20.90;;
6580;SDS011;3324;50.796;7.228;2022-08-14T11:33:08;23.40;;;20.40;;
6580;SDS011;3324;50.796;7.228;2022-08-14T11:35:35;25.43;;;21.00;;
6580;SDS011;3324;50.796;7.228;2022-08-14T11:38:02;27.80;;;21.60;;
6580;SDS011;3324;50.796;7.228;2022-08-14T11:40:34;31.80;;;22.40;;
6580;SDS011;3324;50.796;7.228;2022-08-14T11:43:02;25.60;;;20.90;;
6580;SDS011;3324;50.796;7.228;2022-08-14T11:45:33;24.15;;;20.50;;
6580;SDS011;3324;50.796;7.228;2022-08-14T11:48:12;25.80;;;21.20;;
6580;SDS011;3324;50.796;7.228;2022-08-14T11:50:46;28.85;;;21.20;;
6580;SDS011;3324;50.796;7.228;2022-08-14T11:56:03;27.70;;;21.10;;
6580;SDS011;3324;50.796;7.228;2022-08-14T11:58:34;23.45;;;20.30;;
6580;SDS011;3324;50.796;7.228;2022-08-14T12:01:05;22.25;;;19.85;;
6580;SDS011;3324;50.796;7.228;2022-08-14T12:06:19;28.70;;;21.50;;
6580;SDS011;3324;50.796;7.228;2022-08-14T12:08:45;30.00;;;21.60;;
6580;SDS011;3324;50.796;7.228;2022-08-14T12:11:11;23.60;;;20.30;;
6580;SDS011;3324;50.796;7.228;2022-08-14T12:13:39;22.05;;;19.60;;
6580;SDS011;3324;50.796;7.228;2022-08-14T12:16:07;24.30;;;20.40;;
6580;SDS011;3324;50.796;7.228;2022-08-14T12:18:37;29.30;;;21.60;;
6580;SDS011;3324;50.796;7.228;2022-08-14T12:23:41;23.50;;;20.40;;
6580;SDS011;3324;50.796;7.228;2022-08-14T12:26:09;23.13;;;20.30;;
6580;SDS011;3324;50.796;7.228;2022-08-14T12:28:41;25.13;;;20.63;;
6580;SDS011;3324;50.796;7.228;2022-08-14T12:31:12;35.60;;;26.60;;
6580;SDS011;3324;50.796;7.228;2022-08-14T12:33:40;22.80;;;20.00;;
6580;SDS011;3324;50.796;7.228;2022-08-14T12:36:07;24.95;;;20.95;;
6580;SDS011;3324;50.796;7.228;2022-08-14T12:38:44;25.30;;;20.25;;
6580;SDS011;3324;50.796;7.228;2022-08-14T12:41:14;29.50;;;24.25;;
6580;SDS011;3324;50.796;7.228;2022-08-14T12:43:45;26.45;;;21.85;;
6580;SDS011;3324;50.796;7.228;2022-08-14T12:46:22;33.40;;;22.65;;
6580;SDS011;3324;50.796;7.228;2022-08-14T12:49:05;30.70;;;22.60;;
6580;SDS011;3324;50.796;7.228;2022-08-14T12:51:37;31.80;;;23.10;;
6580;SDS011;3324;50.796;7.228;2022-08-14T12:54:11;30.30;;;22.40;;
6580;SDS011;3324;50.796;7.228;2022-08-14T12:56:42;33.50;;;22.47;;
6580;SDS011;3324;50.796;7.228;2022-08-14T12:59:10;32.30;;;23.10;;
6580;SDS011;3324;50.796;7.228;2022-08-14T13:01:36;35.20;;;23.45;;
6580;SDS011;3324;50.796;7.228;2022-08-14T13:04:16;32.50;;;22.90;;
6580;SDS011;3324;50.796;7.228;2022-08-14T13:06:42;34.00;;;23.50;;
6580;SDS011;3324;50.796;7.228;2022-08-14T13:09:10;33.70;;;23.15;;
6580;SDS011;3324;50.796;7.228;2022-08-14T13:11:40;31.10;;;22.80;;
6580;SDS011;3324;50.796;7.228;2022-08-14T13:14:15;29.50;;;22.00;;
6580;SDS011;3324;50.796;7.228;2022-08-14T13:16:55;33.80;;;23.17;;
6580;SDS011;3324;50.796;7.228;2022-08-14T13:19:22;37.70;;;24.10;;
6580;SDS011;3324;50.796;7.228;2022-08-14T13:21:49;38.20;;;24.30;;
6580;SDS011;3324;50.796;7.228;2022-08-14T13:24:17;34.85;;;23.30;;
6580;SDS011;3324;50.796;7.228;2022-08-14T13:26:45;35.05;;;24.00;;
6580;SDS011;3324;50.796;7.228;2022-08-14T13:29:14;39.30;;;24.90;;
6580;SDS011;3324;50.796;7.228;2022-08-14T13:31:43;29.73;;;22.17;;
6580;SDS011;3324;50.796;7.228;2022-08-14T13:34:13;31.50;;;22.60;;
6580;SDS011;3324;50.796;7.228;2022-08-14T13:36:39;38.80;;;24.40;;
6580;SDS011;3324;50.796;7.228;2022-08-14T13:39:05;27.75;;;21.90;;
6580;SDS011;3324;50.796;7.228;2022-08-14T13:41:33;32.30;;;22.50;;
6580;SDS011;3324;50.796;7.228;2022-08-14T13:43:59;32.40;;;22.70;;
6580;SDS011;3324;50.796;7.228;2022-08-14T13:46:25;32.60;;;23.10;;
6580;SDS011;3324;50.796;7.228;2022-08-14T13:48:50;36.00;;;23.50;;
6580;SDS011;3324;50.796;7.228;2022-08-14T13:51:17;29.25;;;22.13;;
6580;SDS011;3324;50.796;7.228;2022-08-14T13:53:48;31.10;;;22.60;;
6580;SDS011;3324;50.796;7.228;2022-08-14T13:56:14;28.25;;;22.00;;
6580;SDS011;3324;50.796;7.228;2022-08-14T13:58:43;29.30;;;22.30;;
6580;SDS011;3324;50.796;7.228;2022-08-14T14:01:14;30.20;;;22.60;;
6580;SDS011;3324;50.796;7.228;2022-08-14T14:03:44;30.70;;;22.80;;
6580;SDS011;3324;50.796;7.228;2022-08-14T14:06:14;26.93;;;21.53;;
6580;SDS011;3324;50.796;7.228;2022-08-14T14:08:48;30.05;;;22.90;;
6580;SDS011;3324;50.796;7.228;2022-08-14T14:11:17;29.00;;;22.10;;
6580;SDS011;3324;50.796;7.228;2022-08-14T14:13:49;28.75;;;21.45;;
6580;SDS011;3324;50.796;7.228;2022-08-14T14:16:18;30.00;;;21.90;;
6580;SDS011;3324;50.796;7.228;2022-08-14T14:18:45;30.80;;;22.55;;
6580;SDS011;3324;50.796;7.228;2022-08-14T14:21:15;28.40;;;21.20;;
6580;SDS011;3324;50.796;7.228;2022-08-14T14:23:45;37.40;;;26.65;;
6580;SDS011;3324;50.796;7.228;2022-08-14T14:26:15;29.45;;;24.70;;
6580;SDS011;3324;50.796;7.228;2022-08-14T14:28:43;23.80;;;19.80;;
6580;SDS011;3324;50.796;7.228;2022-08-14T14:31:22;25.63;;;20.70;;
6580;SDS011;3324;50.796;7.228;2022-08-14T14:33:51;29.35;;;21.23;;
6580;SDS011;3324;50.796;7.228;2022-08-14T14:36:22;33.85;;;24.05;;
6580;SDS011;3324;50.796;7.228;2022-08-14T14:38:54;34.97;;;24.23;;
6580;SDS011;3324;50.796;7.228;2022-08-14T14:43:50;34.00;;;25.35;;
6580;SDS011;3324;50.796;7.228;2022-08-14T14:46:17;26.60;;;21.00;;
6580;SDS011;3324;50.796;7.228;2022-08-14T14:48:44;31.90;;;22.40;;
6580;SDS011;3324;50.796;7.228;2022-08-14T14:51:11;26.50;;;21.20;;
6580;SDS011;3324;50.796;7.228;2022-08-14T14:53:38;26.50;;;21.50;;
6580;SDS011;3324;50.796;7.228;2022-08-14T14:56:04;30.40;;;23.85;;
6580;SDS011;3324;50.796;7.228;2022-08-14T14:58:33;29.40;;;23.85;;
6580;SDS011;3324;50.796;7.228;2022-08-14T15:00:59;28.52;;;21.15;;
6580;SDS011;3324;50.796;7.228;2022-08-14T15:03:29;28.40;;;21.35;;
6580;SDS011;3324;50.796;7.228;2022-08-14T15:05:54;27.65;;;21.55;;
6580;SDS011;3324;50.796;7.228;2022-08-14T15:08:21;30.05;;;23.25;;
6580;SDS011;3324;50.796;7.228;2022-08-14T15:10:47;33.00;;;24.20;;
6580;SDS011;3324;50.796;7.228;2022-08-14T15:13:12;22.10;;;19.70;;
6580;SDS011;3324;50.796;7.228;2022-08-14T15:15:38;25.63;;;21.03;;
6580;SDS011;3324;50.796;7.228;2022-08-14T15:18:06;29.05;;;23.20;;
6580;SDS011;3324;50.796;7.228;2022-08-14T15:20:32;36.25;;;24.45;;
6580;SDS011;3324;50.796;7.228;2022-08-14T15:22:58;31.75;;;25.65;;
6580;SDS011;3324;50.796;7.228;2022-08-14T15:25:27;31.60;;;22.80;;